Time;durP1;ratioP1;P1;durP2;ratioP2;P2;SDS_P1;SDS_P2;PMS_P1;PMS_P2;Temp;Humidity;BMP_temperature;BMP_pressure;BME280_temperature;BME280_humidity;BME280_pressure;Samples;Min_cycle;Max_cycle;Signal;HPM_P1;HPM_P2
2023/01/26 00:00:04;;;;;;;13.27;6.38;;;;;;;1.02;76.39;102235.47;4987426;28;20053;-58
2023/01/26 00:02:29;;;;;;;18.50;9.35;;;;;;;1.03;76.39;102237.19;4984338;28;20516;-59
2023/01/26 00:04:55;;;;;;;15.15;6.40;;;;;;;1.01;76.22;102234.59;4986291;28;20034;-55
2023/01/26 00:07:20;;;;;;;19.90;8.00;;;;;;;1.01;75.94;102232.00;4986301;28;20482;-56
2023/01/26 00:09:45;;;;;;;20.75;8.73;;;;;;;1.00;76.14;102226.81;4982544;28;20038;-61
2023/01/26 00:12:11;;;;;;;19.90;7.35;;;;;;;1.00;76.23;102224.22;4986621;28;20061;-59
2023/01/26 00:14:48;;;;;;;19.92;7.70;;;;;;;1.00;76.30;102219.03;4983810;28;20049;-60
2023/01/26 00:17:15;;;;;;;17.73;6.97;;;;;;;0.99;75.69;102217.28;4985804;28;20120;-62
2023/01/26 00:19:41;;;;;;;18.67;7.43;;;;;;;0.98;75.93;102210.41;4991013;28;20371;-59
2023/01/26 00:22:06;;;;;;;19.00;8.07;;;;;;;0.96;75.78;102202.59;4994028;28;20045;-59
2023/01/26 00:24:32;;;;;;;20.27;7.88;;;;;;;0.97;76.24;102208.66;5001669;28;20494;-59
2023/01/26 00:26:57;;;;;;;20.25;8.25;;;;;;;1.00;75.94;102203.47;4995367;28;20022;-58
2023/01/26 00:29:23;;;;;;;20.80;7.60;;;;;;;0.99;75.90;102199.16;4990999;28;20026;-58
2023/01/26 00:31:48;;;;;;;19.58;8.57;;;;;;;0.97;76.29;102198.28;4990354;28;20022;-60
2023/01/26 00:34:13;;;;;;;18.67;8.18;;;;;;;0.98;76.54;102200.03;4988251;28;20089;-59
2023/01/26 00:36:39;;;;;;;21.05;8.20;;;;;;;1.00;76.24;102193.09;4996128;28;20072;-60
2023/01/26 00:39:04;;;;;;;20.08;7.45;;;;;;;1.01;75.99;102193.13;4988181;28;20092;-60
2023/01/26 00:44:14;;;;;;;22.23;8.63;;;;;;;1.06;76.14;102188.81;4983601;28;20101;-58
2023/01/26 00:46:39;;;;;;;19.05;8.30;;;;;;;1.05;75.78;102188.81;4985134;28;20425;-60
2023/01/26 00:49:04;;;;;;;20.35;8.10;;;;;;;1.03;75.95;102191.41;4994226;28;20481;-60
2023/01/26 00:51:30;;;;;;;15.77;6.97;;;;;;;1.01;75.81;102194.84;4990346;28;20072;-57
2023/01/26 00:53:55;;;;;;;18.27;7.25;;;;;;;1.01;75.98;102189.66;4990572;28;20026;-58
2023/01/26 00:56:21;;;;;;;18.08;7.40;;;;;;;1.03;76.12;102187.94;4986068;28;20084;-59
2023/01/26 00:58:46;;;;;;;18.42;7.38;;;;;;;1.00;75.66;102182.72;4996267;28;20030;-59
2023/01/26 01:01:12;;;;;;;18.45;6.97;;;;;;;0.96;76.40;102186.19;4987862;28;20045;-62
2023/01/26 01:03:37;;;;;;;15.98;7.38;;;;;;;0.95;75.72;102184.47;4985056;28;20034;-62
2023/01/26 01:06:03;;;;;;;19.55;8.07;;;;;;;0.95;76.03;102184.47;4992119;28;20046;-62
2023/01/26 01:08:28;;;;;;;19.42;7.70;;;;;;;0.97;75.73;102185.34;4988659;28;20040;-59
2023/01/26 01:11:05;;;;;;;16.45;6.95;;;;;;;0.95;75.94;102181.88;4990525;28;20084;-61
2023/01/26 01:13:30;;;;;;;16.55;6.68;;;;;;;0.96;75.97;102171.50;4987818;28;20022;-61
2023/01/26 01:15:56;;;;;;;14.65;7.20;;;;;;;1.01;76.30;102168.91;4993118;28;20033;-62
2023/01/26 01:18:22;;;;;;;19.00;6.97;;;;;;;1.00;75.89;102170.66;4989986;28;20038;-62
2023/01/26 01:20:47;;;;;;;18.42;7.53;;;;;;;0.98;75.91;102164.59;4989348;28;20040;-59
2023/01/26 01:23:12;;;;;;;17.33;6.82;;;;;;;0.98;75.54;102163.75;4986849;28;20080;-62
2023/01/26 01:25:38;;;;;;;13.98;6.57;;;;;;;0.96;75.34;102155.94;4981587;28;20030;-62
2023/01/26 01:28:03;;;;;;;15.60;6.30;;;;;;;0.96;75.73;102157.69;4984942;28;20026;-61
2023/01/26 01:30:29;;;;;;;15.05;6.45;;;;;;;0.93;76.01;102163.69;4988998;28;20088;-60
2023/01/26 01:32:54;;;;;;;15.25;6.03;;;;;;;0.93;76.35;102155.91;4990105;28;20030;-61
2023/01/26 01:35:20;;;;;;;15.50;6.88;;;;;;;0.97;76.25;102159.41;4993144;28;20038;-58
2023/01/26 01:37:45;;;;;;;17.23;7.20;;;;;;;0.98;76.13;102154.22;4994235;28;20034;-62
2023/01/26 01:40:12;;;;;;;19.25;7.72;;;;;;;1.00;75.79;102149.03;4986996;28;20101;-59
2023/01/26 01:42:37;;;;;;;13.95;6.18;;;;;;;1.03;75.99;102154.25;4983219;28;20041;-62
2023/01/26 01:45:21;;;;;;;15.02;6.35;;;;;;;1.04;76.05;102148.19;4985525;28;20030;-60
2023/01/26 01:47:46;;;;;;;14.20;6.35;;;;;;;1.02;76.09;102144.72;4993582;28;20028;-59
2023/01/26 01:50:17;;;;;;;15.00;6.63;;;;;;;0.95;76.01;102137.81;4989663;28;20038;-60
2023/01/26 01:52:42;;;;;;;13.70;6.47;;;;;;;0.94;76.14;102134.31;4989632;28;20041;-60
2023/01/26 01:55:11;;;;;;;17.80;6.20;;;;;;;0.94;75.97;102136.06;4985742;28;20121;-58
2023/01/26 01:57:44;;;;;;;14.93;6.35;;;;;;;0.91;76.18;102127.41;4993349;28;20443;-62
2023/01/26 02:00:13;;;;;;;16.45;6.93;;;;;;;0.89;76.09;102136.91;4989953;28;20034;-60
2023/01/26 02:02:40;;;;;;;14.40;6.53;;;;;;;0.87;76.16;102127.41;4986669;28;20560;-62
2023/01/26 02:05:23;;;;;;;8.30;4.03;;;;;;;0.86;76.23;102125.66;4996160;28;20081;-62
2023/01/26 02:07:49;;;;;;;14.10;6.55;;;;;;;0.90;76.23;102130.00;4992341;28;20385;-62
2023/01/26 02:10:18;;;;;;;14.52;7.00;;;;;;;0.91;75.73;102122.22;4989698;28;20048;-62
2023/01/26 02:12:47;;;;;;;18.35;7.63;;;;;;;0.92;76.08;102128.25;4993005;28;20437;-61
2023/01/26 02:15:13;;;;;;;14.07;6.25;;;;;;;0.90;76.01;102124.81;4995753;28;20081;-62
2023/01/26 02:17:39;;;;;;;13.93;6.40;;;;;;;0.88;76.17;102121.34;4994815;28;20018;-60
2023/01/26 02:20:12;;;;;;;14.73;5.93;;;;;;;0.85;76.33;102111.81;4988490;28;20026;-59
2023/01/26 02:23:05;;;;;;;15.18;5.38;;;;;;;0.88;76.33;102113.56;4990664;28;20030;-62
2023/01/26 02:25:52;;;;;;;15.02;5.75;;;;;;;0.88;76.42;102105.81;4988763;28;20033;-62
2023/01/26 02:28:21;;;;;;;13.63;5.65;;;;;;;0.89;76.39;102108.38;4989500;28;20038;-61
2023/01/26 02:30:47;;;;;;;14.50;5.95;;;;;;;0.91;76.27;102101.50;4990542;28;20027;-62
2023/01/26 02:33:16;;;;;;;11.95;4.95;;;;;;;0.87;76.08;102104.06;4988528;28;20026;-62
2023/01/26 02:35:42;;;;;;;12.23;5.10;;;;;;;0.82;76.55;102096.28;4982493;28;20038;-62
2023/01/26 02:38:07;;;;;;;13.85;5.45;;;;;;;0.76;76.75;102098.81;4984379;28;20035;-59
2023/01/26 02:40:37;;;;;;;14.55;5.55;;;;;;;0.80;76.60;102098.00;5004903;28;20177;-58
2023/01/26 02:43:02;;;;;;;12.02;5.85;;;;;;;0.88;76.49;102101.47;4985368;28;20474;-60
2023/01/26 02:45:30;;;;;;;11.90;5.30;;;;;;;0.90;76.26;102094.56;4988483;28;20034;-60
2023/01/26 02:47:56;;;;;;;14.40;5.57;;;;;;;0.94;76.67;102099.78;4987613;28;20025;-59
2023/01/26 02:50:22;;;;;;;13.52;6.28;;;;;;;0.91;76.48;102085.94;4988145;28;20030;-62
2023/01/26 02:52:48;;;;;;;10.73;5.45;;;;;;;0.97;76.41;102094.63;4985761;28;20052;-62
2023/01/26 02:55:24;;;;;;;10.95;5.20;;;;;;;1.03;76.16;102094.63;4980859;28;20037;-62
2023/01/26 02:57:59;;;;;;;11.65;4.72;;;;;;;1.04;76.51;102085.97;4982993;28;20029;-59
2023/01/26 03:00:28;;;;;;;13.70;5.43;;;;;;;1.04;76.28;102078.22;4985566;28;20092;-61
2023/01/26 03:02:57;;;;;;;13.05;5.50;;;;;;;1.05;76.05;102085.13;4987421;28;20120;-62
2023/01/26 03:05:23;;;;;;;14.05;6.38;;;;;;;1.00;76.11;102079.94;4990812;28;20378;-60
2023/01/26 03:07:48;;;;;;;12.85;5.50;;;;;;;1.00;76.31;102087.72;4987052;28;20508;-60
2023/01/26 03:10:15;;;;;;;12.93;5.28;;;;;;;0.98;75.75;102083.38;4987493;28;20038;-59
2023/01/26 03:12:41;;;;;;;12.20;5.65;;;;;;;0.96;76.57;102077.31;4984157;28;20070;-62
2023/01/26 03:27:25;;;;;;;12.73;5.40;;;;;;;0.97;76.73;102085.09;4993313;28;20070;-62
2023/01/26 03:28:53;;;;;;;11.73;5.45;;;;;;;1.09;76.35;102076.50;4992911;28;20158;-62
2023/01/26 03:31:18;;;;;;;10.95;4.43;;;;;;;1.05;76.50;102069.56;4989446;28;20041;-61
2023/01/26 03:33:44;;;;;;;10.82;4.85;;;;;;;0.99;76.30;102064.34;4989570;28;20482;-61
2023/01/26 03:36:09;;;;;;;12.57;5.75;;;;;;;0.99;76.62;102061.75;4988445;28;20042;-61
2023/01/26 03:38:34;;;;;;;10.52;5.20;;;;;;;0.99;76.80;102060.06;4989172;28;20124;-58
2023/01/26 03:57:24;;;;;;;11.43;5.13;;;;;;;1.14;76.90;102063.56;4992585;28;20073;-59
2023/01/26 03:59:49;;;;;;;10.02;5.07;;;;;;;1.18;76.45;102063.56;4985910;28;20042;-59
2023/01/26 04:10:27;;;;;;;11.65;5.65;;;;;;;1.19;76.75;102054.91;4989664;28;20045;-61
2023/01/26 04:23:55;;;;;;;15.38;6.53;;;;;;;1.11;76.75;102028.13;4986076;28;20045;-60
2023/01/26 04:26:21;;;;;;;17.08;7.70;;;;;;;1.09;77.03;102032.44;4984852;28;20125;-59
2023/01/26 04:28:47;;;;;;;15.50;7.43;;;;;;;1.11;76.48;102035.91;4991020;28;20034;-63
2023/01/26 04:31:12;;;;;;;18.52;7.55;;;;;;;1.05;76.69;102030.69;4993023;28;20085;-60
2023/01/26 04:33:38;;;;;;;14.23;5.93;;;;;;;1.02;76.85;102026.38;4993051;28;20030;-62
2023/01/26 04:36:05;;;;;;;10.38;5.22;;;;;;;0.95;76.72;102024.59;4991936;28;20534;-59
2023/01/26 04:38:30;;;;;;;10.38;4.60;;;;;;;0.91;77.13;102022.84;4988047;28;20045;-60
2023/01/26 04:40:56;;;;;;;11.77;5.47;;;;;;;0.94;77.24;102017.69;4985146;28;20038;-59
2023/01/26 04:43:21;;;;;;;13.80;6.88;;;;;;;0.94;76.95;102016.84;4988207;28;20046;-60
2023/01/26 04:46:04;;;;;;;12.50;5.57;;;;;;;0.93;77.00;102015.97;4989910;28;20122;-59
2023/01/26 04:48:30;;;;;;;12.63;5.60;;;;;;;0.99;77.07;102017.69;4990515;28;20037;-57
2023/01/26 04:50:58;;;;;;;13.52;5.65;;;;;;;1.03;76.84;102019.44;4991119;28;20026;-62
2023/01/26 04:53:24;;;;;;;11.05;5.82;;;;;;;1.07;76.88;102023.78;4988697;28;20038;-55
2023/01/26 04:55:49;;;;;;;22.02;9.85;;;;;;;1.10;76.99;102018.63;4989999;28;20030;-56
2023/01/26 04:58:15;;;;;;;12.25;6.18;;;;;;;1.15;76.81;102014.28;4989518;28;20030;-58
2023/01/26 05:00:48;;;;;;;11.20;5.00;;;;;;;1.16;76.72;102010.81;4986377;28;21750;-61
2023/01/26 05:03:14;;;;;;;11.18;5.43;;;;;;;1.16;76.82;102017.75;4985866;28;20081;-59
2023/01/26 05:05:39;;;;;;;12.13;5.05;;;;;;;1.14;77.05;102015.13;4990936;28;20764;-61
2023/01/26 05:08:05;;;;;;;15.40;5.93;;;;;;;1.13;76.83;102007.38;4986604;28;20026;-56
2023/01/26 05:10:32;;;;;;;12.75;5.03;;;;;;;1.11;76.66;102004.78;4993451;28;20027;-58
2023/01/26 05:12:58;;;;;;;12.18;5.13;;;;;;;1.10;76.77;101997.88;4988812;28;20127;-57
2023/01/26 05:15:24;;;;;;;12.55;4.70;;;;;;;1.07;77.03;101997.84;4993570;28;20280;-57
2023/01/26 05:17:49;;;;;;;12.07;4.88;;;;;;;1.02;76.83;102002.16;4989693;28;20545;-58
2023/01/26 05:20:15;;;;;;;11.18;5.47;;;;;;;1.00;77.20;102004.75;4991574;28;20084;-59
2023/01/26 05:22:41;;;;;;;12.50;5.00;;;;;;;1.01;76.85;102008.19;4983080;28;20117;-59
2023/01/26 05:25:17;;;;;;;12.02;5.53;;;;;;;1.07;77.45;102018.59;4988263;28;20371;-65
2023/01/26 05:27:43;;;;;;;10.32;4.65;;;;;;;1.10;76.86;102012.53;5000505;28;20029;-59
2023/01/26 05:30:10;;;;;;;10.77;4.68;;;;;;;1.09;76.71;102003.91;4982125;28;20034;-61
2023/01/26 05:32:35;;;;;;;11.85;4.88;;;;;;;1.12;76.63;102005.63;4977933;28;20042;-62
2023/01/26 05:35:02;;;;;;;10.50;5.05;;;;;;;1.14;76.79;102014.28;4994499;28;20022;-61
2023/01/26 05:37:28;;;;;;;11.38;5.28;;;;;;;1.15;76.71;102008.25;4987151;28;20034;-61
2023/01/26 05:39:53;;;;;;;12.63;5.53;;;;;;;1.18;76.05;102009.09;4974058;28;20739;-63
2023/01/26 05:42:19;;;;;;;10.20;4.85;;;;;;;1.18;76.14;102011.69;4974104;28;20034;-55
2023/01/26 05:44:47;;;;;;;9.80;4.93;;;;;;;1.12;75.94;102001.34;4978305;28;20062;-58
2023/01/26 05:47:13;;;;;;;12.13;5.05;;;;;;;1.10;76.67;102009.94;4986824;28;20027;-57
2023/01/26 05:49:44;;;;;;;13.95;5.55;;;;;;;1.07;76.62;102008.22;4986571;28;20029;-56
2023/01/26 05:52:18;;;;;;;10.40;4.67;;;;;;;1.08;76.34;102009.97;4992041;28;20042;-60
2023/01/26 05:54:44;;;;;;;10.85;5.18;;;;;;;1.12;76.26;102013.41;4990056;28;20025;-58
2023/01/26 05:57:10;;;;;;;12.32;5.38;;;;;;;1.13;76.35;102018.63;4985370;28;20034;-57
2023/01/26 05:59:36;;;;;;;9.25;4.60;;;;;;;1.09;75.84;102016.88;4977855;28;20025;-57
2023/01/26 06:02:03;;;;;;;15.65;4.70;;;;;;;1.08;76.40;102012.56;4972361;28;20042;-58
2023/01/26 06:04:28;;;;;;;11.25;4.63;;;;;;;1.03;76.75;102011.66;4984933;28;20113;-57
2023/01/26 06:06:55;;;;;;;12.15;4.57;;;;;;;0.99;75.98;102013.41;4984503;28;20121;-60
2023/01/26 06:09:22;;;;;;;11.10;4.88;;;;;;;0.95;76.43;102013.38;4982819;28;20032;-58
2023/01/26 06:11:47;;;;;;;10.50;4.78;;;;;;;0.96;76.03;102010.78;4986390;28;20069;-59
2023/01/26 06:14:13;;;;;;;15.02;6.03;;;;;;;0.94;75.83;102006.47;4985322;28;20069;-60
2023/01/26 06:16:39;;;;;;;16.67;7.63;;;;;;;0.92;76.24;102009.03;4982777;28;20389;-61
2023/01/26 06:19:04;;;;;;;13.60;5.20;;;;;;;0.94;76.44;102016.84;4990085;28;20084;-60
2023/01/26 06:21:31;;;;;;;12.10;4.30;;;;;;;0.91;76.04;102018.56;4986450;28;20112;-61
2023/01/26 06:23:57;;;;;;;9.15;4.85;;;;;;;0.93;76.01;102020.28;4992940;28;20038;-60
2023/01/26 06:26:25;;;;;;;8.70;4.15;;;;;;;0.86;76.47;102025.44;4982331;28;20034;-59
2023/01/26 06:28:52;;;;;;;12.18;5.00;;;;;;;0.85;76.48;102026.28;4989999;28;20026;-60
2023/01/26 06:31:18;;;;;;;12.15;4.60;;;;;;;0.83;76.18;102030.59;4989485;28;20073;-62
2023/01/26 06:33:43;;;;;;;11.80;5.40;;;;;;;0.87;76.46;102032.34;4990289;28;20018;-60
2023/01/26 06:36:12;;;;;;;13.32;4.57;;;;;;;0.88;76.14;102030.66;4990905;28;20514;-60
2023/01/26 06:38:38;;;;;;;13.70;5.93;;;;;;;0.89;76.29;102040.16;4989913;28;20034;-60
2023/01/26 06:41:06;;;;;;;8.30;4.78;;;;;;;0.88;76.00;102041.88;4995754;28;20022;-59
2023/01/26 06:43:34;;;;;;;15.98;5.00;;;;;;;0.85;76.33;102036.66;4989180;28;20121;-60
2023/01/26 06:46:00;;;;;;;16.58;5.03;;;;;;;0.82;76.33;102038.38;4987787;28;20038;-58
2023/01/26 06:48:27;;;;;;;10.35;4.35;;;;;;;0.80;76.10;102038.41;4987569;28;20018;-58
2023/01/26 06:50:56;;;;;;;10.88;4.95;;;;;;;0.78;76.20;102037.53;4985908;28;20034;-60
2023/01/26 06:53:40;;;;;;;12.18;5.03;;;;;;;0.74;76.03;102028.00;4985898;28;20049;-59
2023/01/26 06:56:06;;;;;;;7.47;2.72;;;;;;;0.68;76.54;102020.22;4990433;28;20092;-61
2023/01/26 06:58:31;;;;;;;13.30;4.88;;;;;;;0.67;76.17;102026.25;4991754;28;20034;-57
2023/01/26 07:00:57;;;;;;;14.40;4.82;;;;;;;0.69;76.47;102037.47;4992431;28;20068;-57
2023/01/26 07:03:23;;;;;;;11.48;4.72;;;;;;;0.73;76.80;102039.22;4989479;28;20509;-57
2023/01/26 07:05:48;;;;;;;14.27;6.03;;;;;;;0.78;76.06;102037.53;4991067;28;20029;-61
2023/01/26 07:08:14;;;;;;;17.45;6.28;;;;;;;0.82;76.15;102033.19;4988917;28;20092;-60
2023/01/26 07:10:39;;;;;;;6.13;2.90;;;;;;;0.84;76.02;102021.97;4996009;28;20038;-60
2023/01/26 07:13:05;;;;;;;8.10;3.60;;;;;;;0.86;75.71;102015.06;4990601;28;20030;-61
2023/01/26 07:15:31;;;;;;;11.32;4.93;;;;;;;0.87;75.69;102029.75;4992340;28;20019;-58
2023/01/26 07:17:58;;;;;;;13.93;4.78;;;;;;;0.85;75.49;102034.06;4992729;28;20041;-58
2023/01/26 07:20:23;;;;;;;11.57;4.45;;;;;;;0.87;75.40;102037.53;4990821;28;20113;-62
2023/01/26 07:22:50;;;;;;;13.98;4.88;;;;;;;0.87;75.47;102037.53;4989548;28;20026;-58
2023/01/26 07:25:16;;;;;;;13.05;5.40;;;;;;;0.86;75.75;102034.94;4992013;28;20030;-58
2023/01/26 07:27:42;;;;;;;13.68;5.72;;;;;;;0.89;75.61;102041.00;4992869;28;20030;-60
2023/01/26 07:30:08;;;;;;;13.25;4.53;;;;;;;0.93;75.48;102035.84;4993272;28;20030;-57
2023/01/26 07:32:34;;;;;;;12.85;5.68;;;;;;;0.94;75.42;102033.25;4993029;28;20037;-57
2023/01/26 07:35:00;;;;;;;12.68;4.93;;;;;;;0.95;75.08;102028.94;4996872;28;20027;-58
2023/01/26 07:37:29;;;;;;;13.55;5.93;;;;;;;0.93;75.53;102034.09;4989041;28;20042;-58
2023/01/26 07:39:55;;;;;;;13.93;6.30;;;;;;;0.94;75.96;102037.56;4989894;28;20112;-57
2023/01/26 07:42:20;;;;;;;11.50;5.10;;;;;;;0.92;75.51;102045.31;4984655;28;20034;-57
2023/01/26 07:44:46;;;;;;;13.63;5.78;;;;;;;0.91;75.74;102038.41;4987079;28;20029;-59
2023/01/26 07:47:11;;;;;;;12.43;5.32;;;;;;;0.90;75.83;102042.75;4996738;28;20171;-61
2023/01/26 07:49:37;;;;;;;14.32;5.55;;;;;;;0.91;75.62;102036.69;4996968;28;20026;-62
2023/01/26 07:52:03;;;;;;;12.75;5.32;;;;;;;0.98;75.93;102037.59;4991514;28;20038;-60
2023/01/26 07:54:28;;;;;;;14.63;6.25;;;;;;;1.03;75.54;102032.41;4995463;28;20541;-61
2023/01/26 07:56:54;;;;;;;11.65;4.60;;;;;;;1.02;75.54;102038.44;4997139;28;20153;-59
2023/01/26 07:59:20;;;;;;;12.15;5.15;;;;;;;1.00;75.19;102037.56;4993934;28;20095;-60
2023/01/26 08:01:48;;;;;;;12.05;5.35;;;;;;;1.02;75.22;102041.94;4995809;28;20496;-64
2023/01/26 08:04:13;;;;;;;10.75;5.07;;;;;;;1.05;74.89;102035.88;4986355;28;20045;-61
2023/01/26 08:06:38;;;;;;;12.57;5.60;;;;;;;1.04;74.60;102034.13;4984944;28;20031;-57
2023/01/26 08:09:04;;;;;;;11.85;5.55;;;;;;;1.05;74.51;102041.06;4978950;28;20057;-57
2023/01/26 08:11:29;;;;;;;10.45;4.32;;;;;;;0.99;74.50;102036.72;4982079;28;20043;-60
2023/01/26 08:13:55;;;;;;;10.13;4.43;;;;;;;0.98;74.59;102036.72;4983543;28;20026;-61
2023/01/26 08:16:21;;;;;;;12.73;5.35;;;;;;;1.03;74.87;102037.59;4988406;28;20030;-60
2023/01/26 08:18:46;;;;;;;16.15;5.93;;;;;;;1.09;74.99;102040.22;4995262;28;20062;-58
2023/01/26 08:21:13;;;;;;;15.13;6.60;;;;;;;1.13;74.82;102039.38;4991695;28;20421;-62
2023/01/26 08:23:39;;;;;;;13.07;5.65;;;;;;;1.17;74.71;102041.09;4996354;28;20096;-59
2023/01/26 08:26:07;;;;;;;12.45;5.35;;;;;;;1.17;74.05;102035.03;4990768;28;20504;-59
2023/01/26 08:28:33;;;;;;;11.45;5.10;;;;;;;1.16;74.37;102033.31;4992429;28;20019;-60
2023/01/26 08:31:13;;;;;;;11.85;5.53;;;;;;;1.15;74.66;102032.44;4988490;28;20033;-59
2023/01/26 08:33:41;;;;;;;12.00;5.85;;;;;;;1.16;74.55;102038.50;4991235;28;20029;-60
2023/01/26 08:36:10;;;;;;;12.88;5.55;;;;;;;1.14;74.62;102035.88;4991635;28;20049;-58
2023/01/26 08:38:36;;;;;;;11.82;4.40;;;;;;;1.14;74.41;102033.28;4991400;28;20030;-59
2023/01/26 08:41:02;;;;;;;13.80;5.88;;;;;;;1.19;74.67;102038.50;5002459;28;20543;-60
2023/01/26 08:43:28;;;;;;;13.30;5.93;;;;;;;1.23;74.66;102036.78;4990996;28;20026;-61
2023/01/26 08:45:54;;;;;;;16.40;6.70;;;;;;;1.25;74.11;102037.66;4998940;28;20049;-59
2023/01/26 08:48:19;;;;;;;11.73;5.63;;;;;;;1.26;74.41;102034.19;4991168;28;20030;-60
2023/01/26 08:50:45;;;;;;;11.20;5.68;;;;;;;1.34;74.24;102042.84;4996191;28;20126;-57
2023/01/26 08:53:10;;;;;;;8.27;3.42;;;;;;;1.38;74.08;102029.03;4991351;28;20034;-58
2023/01/26 08:55:36;;;;;;;12.95;5.47;;;;;;;1.41;74.29;102026.44;4992992;28;20079;-59
2023/01/26 08:58:02;;;;;;;15.15;5.88;;;;;;;1.40;74.18;102039.38;4995839;28;20031;-58
2023/01/26 09:00:27;;;;;;;15.07;5.45;;;;;;;1.40;74.00;102031.63;4992006;28;20645;-62
2023/01/26 09:03:00;;;;;;;11.93;4.88;;;;;;;1.44;74.22;102036.81;4990491;28;20041;-62
2023/01/26 09:05:27;;;;;;;9.73;4.05;;;;;;;1.40;73.70;102037.69;4986040;28;20026;-59
2023/01/26 09:07:53;;;;;;;13.40;5.00;;;;;;;1.40;73.18;102048.06;4987508;28;20026;-62
2023/01/26 09:10:18;;;;;;;9.13;4.20;;;;;;;1.31;72.91;102037.66;4988591;28;20041;-59
2023/01/26 09:12:44;;;;;;;9.27;5.22;;;;;;;1.24;73.27;102041.09;4988680;28;20037;-59
2023/01/26 09:15:10;;;;;;;10.02;5.03;;;;;;;1.12;73.57;102036.75;4986400;28;20038;-61
2023/01/26 09:17:36;;;;;;;20.15;6.47;;;;;;;1.02;73.60;102034.16;4992105;28;20128;-59
2023/01/26 09:20:05;;;;;;;12.40;6.10;;;;;;;1.00;73.57;102037.56;4986348;28;20031;-58
2023/01/26 09:22:31;;;;;;;9.45;4.68;;;;;;;0.96;73.82;102039.31;4979989;28;20041;-57
2023/01/26 09:24:56;;;;;;;12.25;5.68;;;;;;;0.90;73.50;102041.88;4989746;28;20393;-60
2023/01/26 09:27:22;;;;;;;9.90;4.38;;;;;;;0.88;73.53;102034.09;4988786;28;20033;-59
2023/01/26 09:29:47;;;;;;;6.60;3.17;;;;;;;0.90;73.54;102027.19;4996949;28;20030;-57
2023/01/26 09:32:13;;;;;;;8.40;4.10;;;;;;;0.91;73.04;102025.44;4986477;28;20157;-58
2023/01/26 09:34:39;;;;;;;5.95;3.72;;;;;;;0.97;73.39;102029.81;4982113;28;20038;-57
2023/01/26 09:37:06;;;;;;;7.43;3.97;;;;;;;1.02;73.18;102022.91;4986646;28;20025;-62
2023/01/26 09:39:32;;;;;;;8.02;3.28;;;;;;;1.03;72.55;102017.72;4986567;28;20390;-62
2023/01/26 09:42:10;;;;;;;8.18;3.72;;;;;;;1.03;72.59;102019.44;4993087;28;20025;-59
2023/01/26 09:45:16;;;;;;;5.75;2.63;;;;;;;1.00;71.82;102032.38;4989790;28;20153;-60
2023/01/26 09:47:56;;;;;;;5.78;3.25;;;;;;;1.03;72.01;102033.28;4990247;28;20022;-61
2023/01/26 09:50:29;;;;;;;6.55;3.72;;;;;;;1.10;72.49;102034.16;4984450;28;20027;-60
2023/01/26 09:53:13;;;;;;;7.80;3.60;;;;;;;1.18;72.01;102031.59;4990576;28;20500;-59
2023/01/26 09:55:40;;;;;;;7.30;3.45;;;;;;;1.28;71.91;102037.66;4990269;28;20037;-60
2023/01/26 09:58:14;;;;;;;6.65;3.38;;;;;;;1.32;71.90;102029.00;4990117;28;20030;-60
2023/01/26 10:00:51;;;;;;;7.60;3.83;;;;;;;1.35;71.95;102034.19;4991738;28;20508;-61
2023/01/26 10:03:30;;;;;;;8.27;3.45;;;;;;;1.40;71.85;102042.00;4993666;28;20030;-61
2023/01/26 10:06:20;;;;;;;6.40;2.83;;;;;;;1.44;71.79;102039.38;4988656;28;20073;-58
2023/01/26 10:08:48;;;;;;;7.40;3.67;;;;;;;1.45;71.05;102041.13;4988884;28;20025;-58
2023/01/26 10:11:19;;;;;;;5.80;2.83;;;;;;;1.47;71.22;102033.38;4986776;28;20030;-59
2023/01/26 10:13:53;;;;;;;5.97;3.10;;;;;;;1.45;71.15;102045.47;4992883;28;20037;-58
2023/01/26 10:16:20;;;;;;;6.55;2.78;;;;;;;1.47;71.06;102030.78;4989854;28;20030;-62
2023/01/26 10:18:59;;;;;;;5.65;3.03;;;;;;;1.46;70.93;102029.88;4988996;28;20375;-60
2023/01/26 10:21:36;;;;;;;6.10;3.28;;;;;;;1.46;71.12;102021.25;4986519;28;20062;-57
2023/01/26 10:24:04;;;;;;;5.53;2.72;;;;;;;1.38;70.71;102010.88;4994021;28;20540;-62
2023/01/26 10:26:32;;;;;;;6.43;3.08;;;;;;;1.36;71.13;102008.25;4995339;28;20117;-62
2023/01/26 10:28:58;;;;;;;5.63;2.95;;;;;;;1.35;70.99;102003.97;4993974;28;20065;-61
2023/01/26 10:31:27;;;;;;;5.30;3.08;;;;;;;1.36;70.75;102010.00;4987910;28;20089;-58
2023/01/26 10:34:20;;;;;;;6.60;3.30;;;;;;;1.30;70.90;102007.38;4986124;28;20022;-60
2023/01/26 10:36:46;;;;;;;6.10;2.95;;;;;;;1.31;70.88;101999.63;4985055;28;20054;-57
2023/01/26 10:39:14;;;;;;;5.38;2.53;;;;;;;1.34;70.91;101988.38;4991153;28;20024;-58
2023/01/26 10:41:54;;;;;;;7.22;3.58;;;;;;;1.31;70.99;101983.19;4990844;28;20035;-62
2023/01/26 10:44:37;;;;;;;7.18;3.60;;;;;;;1.27;70.73;101984.91;4985944;28;20034;-61
2023/01/26 10:47:12;;;;;;;7.32;3.20;;;;;;;1.30;71.19;101984.03;4980688;28;20157;-60
2023/01/26 10:49:37;;;;;;;10.88;3.88;;;;;;;1.33;71.05;101973.69;4985213;28;20030;-58
2023/01/26 10:52:16;;;;;;;7.00;2.90;;;;;;;1.32;70.75;101974.53;4989325;28;20030;-61
2023/01/26 10:54:43;;;;;;;7.65;3.28;;;;;;;1.30;71.19;101968.50;4981888;28;20023;-61
2023/01/26 10:57:18;;;;;;;6.45;3.30;;;;;;;1.31;71.24;101978.00;4991104;28;20042;-60
2023/01/26 10:59:55;;;;;;;8.52;4.07;;;;;;;1.30;71.13;101974.56;4988220;28;20053;-59
2023/01/26 11:02:20;;;;;;;8.45;3.63;;;;;;;1.31;71.18;101973.69;4986064;28;20528;-62
2023/01/26 11:05:08;;;;;;;7.75;3.40;;;;;;;1.35;70.96;101967.66;4986830;28;20105;-59
2023/01/26 11:07:34;;;;;;;8.25;3.75;;;;;;;1.40;71.23;101969.38;4982557;28;20019;-59
2023/01/26 11:10:17;;;;;;;6.70;3.72;;;;;;;1.38;70.76;101966.78;4983053;28;20478;-60
2023/01/26 11:12:42;;;;;;;7.10;3.60;;;;;;;1.46;71.22;101970.22;4987330;28;20038;-60
2023/01/26 11:15:27;;;;;;;7.18;4.10;;;;;;;1.47;70.97;101966.78;4976947;28;20453;-60
2023/01/26 11:17:56;;;;;;;8.23;3.65;;;;;;;1.51;70.73;101962.47;4984970;28;20026;-57
2023/01/26 11:20:39;;;;;;;10.55;6.28;;;;;;;1.47;70.86;101965.91;4989152;28;20430;-59
2023/01/26 11:23:08;;;;;;;6.32;3.42;;;;;;;1.46;71.12;101965.03;4969856;28;20070;-56
2023/01/26 11:25:45;;;;;;;6.43;3.70;;;;;;;1.46;71.10;101959.84;4966098;28;20378;-58
2023/01/26 11:28:31;;;;;;;6.25;3.65;;;;;;;1.42;70.75;101958.16;4972447;28;20061;-58
2023/01/26 11:30:57;;;;;;;8.25;4.10;;;;;;;1.43;70.96;101949.50;4965689;28;20565;-57
2023/01/26 11:33:28;;;;;;;7.93;4.20;;;;;;;1.49;70.58;101946.88;4971262;28;20034;-60
2023/01/26 11:36:33;;;;;;;10.50;4.57;;;;;;;1.51;70.61;101952.94;4979204;28;20046;-57
2023/01/26 11:39:23;;;;;;;7.88;4.07;;;;;;;1.49;70.54;101949.47;4980127;28;20049;-60
2023/01/26 11:41:55;;;;;;;8.10;3.75;;;;;;;1.49;70.75;101941.69;4983908;28;20512;-59
2023/01/26 11:44:42;;;;;;;7.13;4.05;;;;;;;1.46;70.32;101941.69;4975688;28;20121;-59
2023/01/26 11:47:10;;;;;;;6.88;3.85;;;;;;;1.46;70.54;101948.63;4992675;28;20108;-59
2023/01/26 11:50:23;;;;;;;8.15;4.00;;;;;;;1.40;70.44;101952.09;4982986;28;20038;-59
2023/01/26 11:53:19;;;;;;;8.70;4.45;;;;;;;1.40;70.73;101944.31;4940273;28;20043;-62
2023/01/26 11:56:18;;;;;;;6.95;4.20;;;;;;;1.39;70.76;101942.56;4937923;28;20062;-60
2023/01/26 11:59:05;;;;;;;7.75;4.13;;;;;;;1.36;70.77;101937.38;4983273;28;20041;-59
2023/01/26 12:01:37;;;;;;;8.48;4.43;;;;;;;1.36;70.64;101933.03;4990188;28;20043;-58
2023/01/26 12:04:03;;;;;;;8.23;4.20;;;;;;;1.31;70.79;101933.91;4982519;28;20702;-58
2023/01/26 12:06:44;;;;;;;13.02;5.72;;;;;;;1.23;70.72;101927.88;4983607;28;20547;-59
2023/01/26 12:09:22;;;;;;;11.27;5.05;;;;;;;1.20;71.14;101932.19;4947486;28;20034;-61
2023/01/26 12:11:59;;;;;;;10.48;4.43;;;;;;;1.23;71.22;101922.69;4972992;28;20311;-60
2023/01/26 12:14:48;;;;;;;11.52;5.38;;;;;;;1.20;71.14;101921.81;4985270;28;20042;-59
2023/01/26 12:17:41;;;;;;;11.60;6.07;;;;;;;1.17;71.19;101919.22;4979379;28;20503;-56
2023/01/26 12:20:35;;;;;;;9.88;4.65;;;;;;;1.07;71.31;101920.09;4984828;28;20062;-55
2023/01/26 12:23:09;;;;;;;7.00;3.45;;;;;;;0.99;71.66;101911.41;4989670;28;20026;-59
2023/01/26 12:26:07;;;;;;;10.07;4.63;;;;;;;0.96;71.40;101906.25;4991041;28;20050;-57